Time;durP1;ratioP1;P1;durP2;ratioP2;P2;SDS_P1;SDS_P2;PMS_P1;PMS_P2;Temp;Humidity;BMP_temperature;BMP_pressure;BME280_temperature;BME280_humidity;BME280_pressure;Samples;Min_cycle;Max_cycle;Signal;HPM_P1;HPM_P2
2021/07/21 00:00:38;;;;;;;19.15;13.77;;;22.30;82.00;;;;;;5016070;28;20512;-37
2021/07/21 00:03:04;;;;;;;25.13;16.55;;;22.30;82.30;;;;;;5016325;28;20049;-37
2021/07/21 00:05:30;;;;;;;27.67;16.55;;;22.30;82.00;;;;;;5015998;28;20314;-37
2021/07/21 00:07:57;;;;;;;25.77;16.30;;;22.20;81.80;;;;;;5016198;28;20038;-36
2021/07/21 00:10:25;;;;;;;23.15;16.20;;;22.20;81.80;;;;;;5015944;28;20337;-37
2021/07/21 00:15:40;;;;;;;24.42;15.63;;;22.20;81.40;;;;;;5016375;28;20029;-37
2021/07/21 00:18:19;;;;;;;29.87;17.67;;;22.20;81.40;;;;;;5016371;28;20038;-37
2021/07/21 00:20:48;;;;;;;26.97;18.10;;;22.20;81.20;;;;;;5016187;28;20068;-37
2021/07/21 00:23:14;;;;;;;24.42;17.83;;;22.20;81.30;;;;;;5016372;28;20034;-37
2021/07/21 00:25:40;;;;;;;25.75;18.15;;;22.20;81.30;;;;;;5016065;28;20037;-37
2021/07/21 00:28:05;;;;;;;23.67;17.73;;;22.20;81.30;;;;;;5015972;28;20425;-37
2021/07/21 00:30:31;;;;;;;25.25;17.65;;;22.20;81.10;;;;;;5015738;28;20156;-37
2021/07/21 00:32:57;;;;;;;24.10;17.95;;;22.10;81.10;;;;;;5016074;28;20092;-37
2021/07/21 00:35:23;;;;;;;25.50;17.23;;;22.10;81.20;;;;;;5015667;28;20062;-37
2021/07/21 00:37:48;;;;;;;23.27;15.82;;;22.10;81.50;;;;;;5015922;28;20042;-37
2021/07/21 00:40:16;;;;;;;21.92;16.05;;;22.10;81.20;;;;;;5015717;28;20088;-37
2021/07/21 00:42:43;;;;;;;22.30;15.55;;;22.10;80.90;;;;;;5015728;28;20127;-37
2021/07/21 00:45:09;;;;;;;22.45;16.27;;;22.00;80.90;;;;;;5015958;28;20025;-37
2021/07/21 00:47:36;;;;;;;21.75;14.75;;;22.00;81.20;;;;;;5016223;28;20033;-37
2021/07/21 00:50:02;;;;;;;20.95;14.48;;;22.00;81.20;;;;;;5015868;28;20080;-37
2021/07/21 00:52:28;;;;;;;21.20;13.60;;;21.90;82.10;;;;;;5015616;28;20030;-37
2021/07/21 00:54:54;;;;;;;16.17;11.68;;;21.90;81.80;;;;;;5015835;28;20029;-37
2021/07/21 00:57:20;;;;;;;19.70;12.60;;;21.80;82.00;;;;;;5015633;28;20029;-37
2021/07/21 00:59:48;;;;;;;15.77;12.65;;;21.80;82.30;;;;;;5018341;28;20030;-37
2021/07/21 01:02:16;;;;;;;17.38;11.80;;;21.80;82.30;;;;;;5019662;28;20026;-37
2021/07/21 01:04:42;;;;;;;16.85;11.02;;;21.90;82.40;;;;;;5019410;28;20030;-38
2021/07/21 01:07:08;;;;;;;21.73;11.70;;;21.80;82.80;;;;;;5019107;28;20026;-37
2021/07/21 01:09:38;;;;;;;16.80;10.48;;;21.90;83.10;;;;;;5018855;28;20029;-37
2021/07/21 01:12:06;;;;;;;15.68;12.23;;;21.90;83.10;;;;;;5018888;28;20422;-37
2021/07/21 01:14:50;;;;;;;17.42;11.80;;;21.90;82.80;;;;;;5018902;28;20092;-37
2021/07/21 01:17:22;;;;;;;19.48;13.25;;;21.90;82.50;;;;;;5018953;28;20022;-37
2021/07/21 01:20:13;;;;;;;20.02;12.80;;;21.90;82.40;;;;;;5018796;28;20030;-37
2021/07/21 01:22:43;;;;;;;17.70;13.13;;;21.90;82.30;;;;;;5018816;28;20318;-37
2021/07/21 01:25:22;;;;;;;20.80;13.18;;;21.90;82.30;;;;;;5018796;28;20429;-36
2021/07/21 01:27:55;;;;;;;19.60;13.55;;;21.90;82.60;;;;;;5018994;28;20022;-37
2021/07/21 01:30:32;;;;;;;17.65;12.00;;;21.90;82.90;;;;;;5018981;28;20026;-37
2021/07/21 01:33:06;;;;;;;18.23;12.85;;;22.00;83.10;;;;;;5018884;28;20030;-37
2021/07/21 01:35:40;;;;;;;18.23;11.60;;;22.00;83.10;;;;;;5017383;28;20054;-37
2021/07/21 01:38:12;;;;;;;17.38;11.77;;;21.90;83.10;;;;;;5018717;28;20081;-37
2021/07/21 01:40:45;;;;;;;16.77;10.48;;;22.00;83.20;;;;;;5018515;28;20029;-37
2021/07/21 01:43:18;;;;;;;15.52;10.98;;;22.10;83.20;;;;;;5019001;28;20141;-37
2021/07/21 01:45:45;;;;;;;13.50;10.15;;;22.10;82.70;;;;;;5018650;28;20029;-37
2021/07/21 01:48:14;;;;;;;17.38;12.88;;;22.20;83.00;;;;;;5018828;28;20311;-37
2021/07/21 01:50:40;;;;;;;16.88;9.93;;;22.20;83.20;;;;;;5018571;28;20326;-37
2021/07/21 01:53:06;;;;;;;12.85;9.57;;;22.30;83.20;;;;;;5018438;28;20048;-37
2021/07/21 01:55:32;;;;;;;14.77;9.07;;;22.30;83.20;;;;;;5018362;28;20112;-37
2021/07/21 01:58:00;;;;;;;14.00;10.30;;;22.30;82.70;;;;;;5018318;28;20030;-37
2021/07/21 02:00:26;;;;;;;12.73;9.30;;;22.40;82.70;;;;;;5018102;28;20022;-37
2021/07/21 02:02:55;;;;;;;13.38;9.20;;;22.40;82.80;;;;;;5017033;28;20089;-38
2021/07/21 02:05:22;;;;;;;12.13;8.25;;;22.40;82.70;;;;;;5018009;28;20032;-37
2021/07/21 02:07:50;;;;;;;11.65;8.70;;;22.40;82.80;;;;;;5018344;28;20048;-37
2021/07/21 02:10:20;;;;;;;11.07;7.20;;;22.50;82.90;;;;;;5017645;28;20061;-37
2021/07/21 02:12:50;;;;;;;9.85;6.90;;;22.50;82.90;;;;;;5017852;28;20050;-37
2021/07/21 02:15:17;;;;;;;9.13;6.95;;;22.50;82.80;;;;;;5017928;28;20028;-37
2021/07/21 02:17:43;;;;;;;9.07;6.00;;;22.50;82.30;;;;;;5017907;28;20042;-37
2021/07/21 02:20:10;;;;;;;7.70;5.65;;;22.50;82.00;;;;;;5017654;28;20026;-37
2021/07/21 02:22:37;;;;;;;5.80;4.82;;;22.50;82.00;;;;;;5018037;28;20033;-38
2021/07/21 02:25:03;;;;;;;7.72;5.75;;;22.50;82.00;;;;;;5017701;28;20086;-37
2021/07/21 02:27:30;;;;;;;6.35;5.20;;;22.50;81.90;;;;;;5017555;28;20364;-37
2021/07/21 02:29:56;;;;;;;8.00;5.68;;;22.50;82.00;;;;;;5017802;28;20030;-37
2021/07/21 02:32:31;;;;;;;7.50;5.50;;;22.60;82.10;;;;;;5017740;28;20107;-37
2021/07/21 02:35:00;;;;;;;7.78;5.80;;;22.50;82.10;;;;;;5017231;28;20099;-37
2021/07/21 02:37:26;;;;;;;8.98;5.70;;;22.50;82.30;;;;;;5017632;28;20034;-37
2021/07/21 02:39:53;;;;;;;7.13;5.97;;;22.50;82.30;;;;;;5017629;28;20422;-37
2021/07/21 02:42:19;;;;;;;10.07;6.07;;;22.60;82.30;;;;;;5017269;28;20037;-37
2021/07/21 02:44:47;;;;;;;9.23;6.57;;;22.60;83.00;;;;;;5017343;28;20026;-37
2021/07/21 02:47:14;;;;;;;7.53;5.45;;;22.60;82.30;;;;;;5017386;28;20287;-37
2021/07/21 02:49:41;;;;;;;8.90;5.78;;;22.60;82.20;;;;;;5017297;28;20029;-37
2021/07/21 02:52:24;;;;;;;8.05;6.50;;;22.60;82.10;;;;;;5017072;28;20034;-37
2021/07/21 02:55:11;;;;;;;7.93;6.05;;;22.60;81.70;;;;;;5017439;28;20361;-37
2021/07/21 02:57:48;;;;;;;7.75;5.30;;;22.60;81.90;;;;;;5017210;28;20029;-37
2021/07/21 03:00:19;;;;;;;7.30;5.35;;;22.60;82.00;;;;;;5017606;28;20295;-37
2021/07/21 03:02:48;;;;;;;7.72;5.38;;;22.70;82.30;;;;;;5017277;28;20061;-37
2021/07/21 03:05:17;;;;;;;7.75;5.28;;;22.70;82.20;;;;;;5016912;28;20022;-37
2021/07/21 03:07:52;;;;;;;8.52;5.65;;;22.70;82.20;;;;;;5016980;28;20111;-37
2021/07/21 03:10:18;;;;;;;5.93;4.95;;;22.70;82.10;;;;;;5017163;28;20113;-37
2021/07/21 03:12:58;;;;;;;7.30;6.00;;;22.80;82.40;;;;;;5016933;28;20045;-37
2021/07/21 03:15:28;;;;;;;8.95;5.93;;;22.80;82.40;;;;;;5016934;28;20113;-37
2021/07/21 03:17:55;;;;;;;7.10;5.28;;;22.80;82.50;;;;;;5017057;28;20052;-37
2021/07/21 03:20:22;;;;;;;7.72;5.68;;;22.80;82.40;;;;;;5016881;28;20030;-37
2021/07/21 03:22:48;;;;;;;9.63;4.68;;;22.80;82.10;;;;;;5016105;28;20042;-37
2021/07/21 03:25:15;;;;;;;7.10;4.97;;;22.90;81.90;;;;;;5015627;28;20109;-37
2021/07/21 03:27:41;;;;;;;6.30;5.28;;;22.90;82.50;;;;;;5016711;28;20030;-37
2021/07/21 03:30:09;;;;;;;9.00;6.05;;;22.90;82.30;;;;;;5016456;28;20029;-37
2021/07/21 03:32:36;;;;;;;7.50;5.65;;;22.90;82.40;;;;;;5016691;28;20361;-37
2021/07/21 03:35:03;;;;;;;9.15;6.38;;;22.90;82.20;;;;;;5016236;28;20073;-37
2021/07/21 03:37:30;;;;;;;7.25;5.90;;;22.90;82.00;;;;;;5016484;28;20038;-37
2021/07/21 03:39:58;;;;;;;8.48;6.40;;;22.90;82.00;;;;;;5016512;28;20053;-37
2021/07/21 03:42:25;;;;;;;9.15;6.38;;;23.00;82.40;;;;;;5016637;28;20064;-37
2021/07/21 03:44:53;;;;;;;7.32;5.68;;;23.00;82.30;;;;;;5016313;28;20049;-37
2021/07/21 03:47:20;;;;;;;5.60;4.82;;;23.00;82.50;;;;;;5016229;28;20109;-37
2021/07/21 03:49:46;;;;;;;8.25;5.30;;;23.00;82.30;;;;;;5016092;28;20026;-37
2021/07/21 03:52:13;;;;;;;9.77;4.72;;;23.10;82.40;;;;;;5016390;28;20029;-37
2021/07/21 03:54:40;;;;;;;6.47;5.05;;;23.10;82.30;;;;;;5016243;28;20107;-37
2021/07/21 03:57:07;;;;;;;8.95;5.70;;;23.10;82.00;;;;;;5016135;28;20029;-37
2021/07/21 03:59:36;;;;;;;7.45;4.70;;;23.10;81.90;;;;;;5015964;28;20041;-37
2021/07/21 04:02:02;;;;;;;9.13;5.20;;;23.20;81.80;;;;;;5015996;28;20036;-37
2021/07/21 04:04:29;;;;;;;6.82;5.03;;;23.20;81.80;;;;;;5016267;28;20034;-37
2021/07/21 04:06:57;;;;;;;7.05;4.68;;;23.20;81.00;;;;;;5016211;28;20025;-37
2021/07/21 04:09:25;;;;;;;5.93;4.63;;;23.20;80.80;;;;;;5016342;28;20034;-37
2021/07/21 04:11:55;;;;;;;6.70;5.03;;;23.30;81.10;;;;;;5015957;28;20029;-37
2021/07/21 04:14:22;;;;;;;;;;;23.30;80.90;;;;;;5016795;28;20042;-37
2021/07/21 04:16:50;;;;;;;8.13;5.43;;;23.30;80.80;;;;;;5015918;28;19955;-37
2021/07/21 04:19:17;;;;;;;6.88;4.97;;;23.30;80.50;;;;;;5016318;28;20478;-37
2021/07/21 04:21:47;;;;;;;6.13;5.18;;;23.30;80.90;;;;;;5015872;28;20022;-37
2021/07/21 04:24:14;;;;;;;6.95;5.50;;;23.30;81.40;;;;;;5016303;28;20030;-37
2021/07/21 04:26:40;;;;;;;7.57;5.35;;;23.30;81.20;;;;;;5016084;28;20093;-37
2021/07/21 04:29:18;;;;;;;7.10;5.40;;;23.40;80.90;;;;;;5016058;28;20105;-37
2021/07/21 04:31:46;;;;;;;6.72;4.75;;;23.40;81.30;;;;;;5015862;28;20026;-37
2021/07/21 04:34:14;;;;;;;7.57;5.25;;;23.50;81.20;;;;;;5017562;28;20058;-37
2021/07/21 04:36:41;;;;;;;6.07;5.07;;;23.50;81.10;;;;;;5019452;28;20022;-37
2021/07/21 04:39:08;;;;;;;6.55;4.88;;;23.60;81.30;;;;;;5019821;28;20041;-37
2021/07/21 04:41:34;;;;;;;8.27;5.80;;;23.60;80.70;;;;;;5019772;28;20448;-37
2021/07/21 04:44:04;;;;;;;8.75;6.15;;;23.70;80.50;;;;;;5018481;28;20029;-37
2021/07/21 04:46:34;;;;;;;11.55;6.70;;;23.70;80.50;;;;;;5019402;28;20022;-37
2021/07/21 04:49:01;;;;;;;8.33;6.30;;;23.70;80.00;;;;;;5019753;28;20037;-37
2021/07/21 04:51:33;;;;;;;8.23;6.13;;;23.80;80.00;;;;;;5019477;28;20313;-37
2021/07/21 04:54:04;;;;;;;7.13;5.72;;;23.80;80.60;;;;;;5019548;28;20038;-37
2021/07/21 04:56:30;;;;;;;8.00;6.55;;;23.80;80.40;;;;;;5018665;28;20025;-37
2021/07/21 04:58:55;;;;;;;9.85;5.80;;;23.90;79.90;;;;;;5018332;28;20060;-37
2021/07/21 05:01:21;;;;;;;9.35;6.70;;;23.90;79.80;;;;;;5018745;28;20026;-37
2021/07/21 05:03:47;;;;;;;9.32;6.88;;;23.90;78.50;;;;;;5018884;28;20034;-37
2021/07/21 05:06:13;;;;;;;7.55;6.55;;;24.00;78.70;;;;;;5011370;28;20322;-37
2021/07/21 05:08:38;;;;;;;11.88;7.00;;;24.00;79.30;;;;;;4999689;28;20038;-37
2021/07/21 05:11:04;;;;;;;7.82;6.07;;;24.00;78.90;;;;;;4999368;28;20089;-37
2021/07/21 05:13:30;;;;;;;12.25;8.80;;;24.10;78.80;;;;;;4999543;28;20050;-37
2021/07/21 05:15:55;;;;;;;10.07;7.50;;;24.10;78.70;;;;;;4999012;28;20125;-37
2021/07/21 05:18:21;;;;;;;12.55;7.78;;;24.10;78.50;;;;;;4999488;28;20042;-37
2021/07/21 05:20:47;;;;;;;7.68;6.65;;;24.20;78.60;;;;;;4999060;28;20034;-37
2021/07/21 05:23:13;;;;;;;10.75;7.47;;;24.20;78.70;;;;;;4999281;28;20314;-37
2021/07/21 05:25:39;;;;;;;10.98;8.02;;;24.30;78.60;;;;;;4999002;28;20030;-37
2021/07/21 05:28:09;;;;;;;10.38;8.13;;;24.30;78.30;;;;;;4999161;28;20113;-37
2021/07/21 05:30:35;;;;;;;9.73;7.37;;;24.30;78.20;;;;;;4998577;28;20026;-37
2021/07/21 05:33:02;;;;;;;10.50;7.35;;;24.40;78.20;;;;;;4999006;28;20030;-37
2021/07/21 05:35:27;;;;;;;10.52;7.55;;;24.50;78.20;;;;;;4998242;28;20431;-37
2021/07/21 05:37:54;;;;;;;9.88;8.13;;;24.50;77.90;;;;;;4998566;28;20062;-37
2021/07/21 05:40:19;;;;;;;14.65;8.20;;;24.60;77.40;;;;;;4998351;28;20030;-37
2021/07/21 05:42:45;;;;;;;10.55;7.85;;;24.70;76.70;;;;;;4998651;28;20089;-37
2021/07/21 05:45:11;;;;;;;11.57;8.70;;;24.70;76.00;;;;;;4997177;28;20027;-37
2021/07/21 05:47:37;;;;;;;11.50;9.48;;;24.70;76.10;;;;;;4998547;28;20038;-37
2021/07/21 05:50:04;;;;;;;12.55;8.45;;;24.70;76.50;;;;;;4998357;28;20077;-37
2021/07/21 05:52:30;;;;;;;12.18;8.75;;;24.70;76.10;;;;;;4998300;28;20034;-37
2021/07/21 05:54:55;;;;;;;12.52;10.30;;;24.80;76.10;;;;;;4997979;28;20033;-37
2021/07/21 05:57:21;;;;;;;14.25;10.55;;;24.80;75.20;;;;;;4997819;28;20080;-37
2021/07/21 05:59:47;;;;;;;13.63;10.50;;;24.90;75.50;;;;;;4997920;28;20026;-37
2021/07/21 06:02:12;;;;;;;15.35;10.75;;;24.90;74.80;;;;;;4998274;28;20065;-37
2021/07/21 06:04:38;;;;;;;12.27;9.73;;;25.00;74.60;;;;;;4996872;28;20027;-37
2021/07/21 06:07:06;;;;;;;15.80;10.32;;;25.00;74.40;;;;;;4998284;28;20314;-37
2021/07/21 06:09:33;;;;;;;14.35;10.98;;;25.00;74.90;;;;;;4998216;28;20303;-37
2021/07/21 06:11:58;;;;;;;13.95;10.35;;;25.10;74.60;;;;;;4998103;28;20415;-38
2021/07/21 06:14:25;;;;;;;14.63;11.80;;;25.10;74.40;;;;;;4998128;28;20043;-37
2021/07/21 06:16:51;;;;;;;15.75;11.68;;;25.20;73.40;;;;;;4998085;28;20121;-37
2021/07/21 06:19:17;;;;;;;16.25;12.23;;;25.20;73.40;;;;;;4997665;28;20133;-37
2021/07/21 06:21:42;;;;;;;19.75;15.25;;;25.20;72.80;;;;;;4997377;28;20038;-37
2021/07/21 06:24:08;;;;;;;18.13;12.68;;;25.20;73.20;;;;;;4997440;28;20065;-37
2021/07/21 06:26:34;;;;;;;15.65;12.63;;;25.20;72.60;;;;;;4994656;28;20030;-38
2021/07/21 06:28:59;;;;;;;19.77;15.05;;;25.30;72.20;;;;;;5013705;28;20072;-44
2021/07/21 06:31:25;;;;;;;19.55;14.48;;;25.30;72.60;;;;;;5014855;28;20037;-38
2021/07/21 06:33:50;;;;;;;17.75;13.63;;;25.40;72.50;;;;;;5016879;28;20457;-47
2021/07/21 06:36:16;;;;;;;15.85;13.10;;;25.50;72.30;;;;;;5016484;28;20084;-39
2021/07/21 06:38:42;;;;;;;17.42;14.00;;;25.60;72.20;;;;;;5016910;28;20295;-46
2021/07/21 06:41:08;;;;;;;16.25;12.95;;;25.70;71.80;;;;;;5016218;28;20018;-45
2021/07/21 06:43:33;;;;;;;21.92;12.70;;;25.80;71.60;;;;;;5016837;28;20029;-46
2021/07/21 06:45:59;;;;;;;17.98;13.32;;;25.90;71.60;;;;;;5016753;28;20025;-37
2021/07/21 06:48:25;;;;;;;27.10;15.63;;;26.00;71.20;;;;;;5016688;28;20045;-46
2021/07/21 06:50:50;;;;;;;16.45;12.63;;;26.00;70.60;;;;;;5016262;28;20030;-38
2021/07/21 06:53:16;;;;;;;16.92;11.90;;;26.10;70.60;;;;;;5016376;28;20088;-37
2021/07/21 06:55:42;;;;;;;17.80;11.85;;;26.10;70.80;;;;;;5016236;28;20030;-43
2021/07/21 06:58:08;;;;;;;18.65;12.75;;;26.20;70.30;;;;;;5015867;28;20092;-45
2021/07/21 07:00:34;;;;;;;14.48;12.20;;;26.30;70.90;;;;;;5015901;28;20468;-37
2021/07/21 07:03:00;;;;;;;17.05;12.82;;;26.30;70.50;;;;;;5015909;28;20029;-37
2021/07/21 07:05:26;;;;;;;22.13;15.13;;;26.30;69.40;;;;;;5016426;28;20097;-36
2021/07/21 07:07:51;;;;;;;19.48;14.70;;;26.40;69.60;;;;;;5015926;28;20331;-37
2021/07/21 07:10:18;;;;;;;18.80;14.48;;;26.50;69.80;;;;;;5016364;28;20057;-37
2021/07/21 07:12:46;;;;;;;19.17;15.40;;;26.50;69.70;;;;;;5015637;28;20037;-37
2021/07/21 07:15:12;;;;;;;18.33;12.90;;;26.60;69.70;;;;;;5015715;28;20087;-43
2021/07/21 07:17:38;;;;;;;16.90;11.75;;;26.60;69.90;;;;;;5015640;28;20038;-37
2021/07/21 07:20:05;;;;;;;25.27;18.60;;;26.60;69.30;;;;;;5016545;28;20186;-45
2021/07/21 07:22:31;;;;;;;17.13;13.63;;;26.70;69.20;;;;;;5016204;28;20046;-46
2021/07/21 07:24:57;;;;;;;22.45;14.30;;;26.70;69.00;;;;;;5016217;28;20034;-37
2021/07/21 07:27:22;;;;;;;19.92;13.32;;;26.70;68.90;;;;;;5015550;28;20120;-38
2021/07/21 07:29:48;;;;;;;20.38;14.45;;;26.80;68.80;;;;;;5016359;28;20022;-48
2021/07/21 07:32:14;;;;;;;17.33;13.88;;;26.80;69.40;;;;;;5015710;28;20088;-37
2021/07/21 07:34:39;;;;;;;18.05;13.85;;;26.80;68.70;;;;;;5015874;28;20048;-45
2021/07/21 07:37:05;;;;;;;27.60;20.15;;;26.90;68.60;;;;;;5015606;28;20076;-38
2021/07/21 07:39:31;;;;;;;16.40;12.98;;;26.90;68.50;;;;;;5016265;28;20026;-48
2021/07/21 07:41:59;;;;;;;24.42;19.23;;;26.90;68.20;;;;;;5011013;28;20036;-38
2021/07/21 07:44:26;;;;;;;21.17;14.63;;;27.00;68.10;;;;;;5013798;28;20355;-47
2021/07/21 07:46:52;;;;;;;20.05;13.55;;;27.10;68.10;;;;;;5015114;28;20037;-49
2021/07/21 07:49:18;;;;;;;16.13;12.80;;;27.10;67.90;;;;;;5016040;28;20030;-37
2021/07/21 07:51:44;;;;;;;18.42;14.07;;;27.20;67.50;;;;;;5015187;28;20030;-38
2021/07/21 07:54:10;;;;;;;19.55;14.30;;;27.20;67.50;;;;;;5015960;28;20037;-49
2021/07/21 07:56:35;;;;;;;20.95;13.80;;;27.20;67.50;;;;;;5015128;28;20037;-37
2021/07/21 07:59:02;;;;;;;19.35;14.32;;;27.30;66.90;;;;;;5012880;28;20322;-39
2021/07/21 08:01:27;;;;;;;16.80;12.73;;;27.30;66.80;;;;;;5014835;28;20079;-45
2021/07/21 08:03:53;;;;;;;17.05;12.30;;;27.30;66.60;;;;;;5015589;28;20042;-47
2021/07/21 08:06:19;;;;;;;17.52;13.07;;;27.30;66.40;;;;;;5015114;28;20029;-47
2021/07/21 08:08:45;;;;;;;16.85;13.23;;;27.20;66.00;;;;;;5018486;28;20029;-37
2021/07/21 08:11:12;;;;;;;21.55;13.70;;;27.30;66.30;;;;;;5021221;28;20065;-37
2021/07/21 08:13:41;;;;;;;13.57;12.18;;;27.30;66.50;;;;;;5022246;28;20038;-36
2021/07/21 08:16:07;;;;;;;15.85;11.63;;;27.30;66.40;;;;;;5021610;28;20034;-48
2021/07/21 08:18:33;;;;;;;19.42;13.52;;;27.30;66.10;;;;;;5022240;28;20116;-36
2021/07/21 08:20:59;;;;;;;19.15;13.80;;;27.20;66.30;;;;;;5021067;28;20180;-37
2021/07/21 08:23:25;;;;;;;14.93;13.20;;;27.30;66.50;;;;;;5022010;28;20117;-47
2021/07/21 08:25:51;;;;;;;21.50;13.70;;;27.30;66.60;;;;;;5021316;28;20057;-36
2021/07/21 08:28:18;;;;;;;19.55;14.15;;;27.40;66.50;;;;;;5021644;28;20051;-37
2021/07/21 08:30:44;;;;;;;15.95;12.65;;;27.40;66.60;;;;;;5021139;28;20034;-37
2021/07/21 08:33:11;;;;;;;19.05;12.80;;;27.40;66.50;;;;;;5021592;28;20029;-39
2021/07/21 08:35:37;;;;;;;17.52;13.02;;;27.50;66.70;;;;;;5021417;28;20049;-38
2021/07/21 08:38:04;;;;;;;18.98;12.75;;;27.50;66.90;;;;;;5021784;28;20361;-38
2021/07/21 08:40:31;;;;;;;16.38;12.32;;;27.50;66.50;;;;;;5021657;28;20034;-39
2021/07/21 08:42:57;;;;;;;15.38;11.63;;;27.60;66.30;;;;;;5021363;28;20048;-37
2021/07/21 08:45:23;;;;;;;13.90;11.00;;;27.60;66.00;;;;;;5021837;28;20025;-39
2021/07/21 08:47:49;;;;;;;15.27;11.20;;;27.60;65.60;;;;;;5020639;28;20053;-39
2021/07/21 08:50:15;;;;;;;17.45;12.98;;;27.70;65.50;;;;;;5021584;28;20022;-39
2021/07/21 08:52:42;;;;;;;16.30;12.27;;;27.80;65.40;;;;;;5017594;28;20053;-39
2021/07/21 08:55:10;;;;;;;16.67;12.43;;;27.80;65.60;;;;;;5021555;28;20034;-39
2021/07/21 08:57:37;;;;;;;15.20;11.18;;;27.90;65.20;;;;;;5021143;28;20048;-39
2021/07/21 09:00:16;;;;;;;16.77;12.02;;;27.90;64.70;;;;;;5021434;28;20065;-37
2021/07/21 09:02:43;;;;;;;18.17;12.18;;;28.00;64.70;;;;;;5020709;28;20029;-39
2021/07/21 09:05:11;;;;;;;19.13;13.05;;;28.10;64.80;;;;;;5021635;28;20299;-38
2021/07/21 09:07:38;;;;;;;17.95;13.40;;;28.10;64.30;;;;;;5020626;28;20411;-39
2021/07/21 09:10:06;;;;;;;16.38;12.65;;;28.20;64.60;;;;;;5021375;28;20021;-38
2021/07/21 09:12:32;;;;;;;21.70;14.65;;;28.20;63.80;;;;;;5020940;28;20042;-37
2021/07/21 09:14:58;;;;;;;18.95;13.98;;;28.20;64.10;;;;;;5021069;28;20041;-38
2021/07/21 09:17:25;;;;;;;16.92;13.70;;;28.20;64.20;;;;;;5020606;28;20038;-38
2021/07/21 09:19:51;;;;;;;20.10;13.38;;;28.20;64.50;;;;;;5020174;28;20026;-38
2021/07/21 09:22:36;;;;;;;23.10;14.15;;;28.20;64.00;;;;;;5017897;28;20517;-37
2021/07/21 09:25:19;;;;;;;19.63;13.80;;;28.20;64.00;;;;;;5017525;28;20395;-37
2021/07/21 09:27:48;;;;;;;17.25;13.15;;;28.20;63.70;;;;;;5017701;28;20060;-37
2021/07/21 09:30:20;;;;;;;18.17;12.80;;;28.10;63.90;;;;;;5017680;28;20064;-38
2021/07/21 09:33:10;;;;;;;19.48;14.48;;;28.10;63.60;;;;;;5017829;28;20111;-38
2021/07/21 09:35:38;;;;;;;18.33;12.07;;;28.10;63.50;;;;;;5008399;28;20041;-38
2021/07/21 09:38:17;;;;;;;15.82;11.77;;;28.10;63.90;;;;;;5017567;28;20084;-38
2021/07/21 09:40:49;;;;;;;16.75;12.48;;;28.10;63.70;;;;;;5017752;28;20056;-38
2021/07/21 09:43:17;;;;;;;21.00;12.57;;;28.10;63.70;;;;;;5017706;28;20076;-38
2021/07/21 09:45:44;;;;;;;17.42;13.38;;;28.00;63.20;;;;;;5017963;28;20062;-37
2021/07/21 09:48:11;;;;;;;19.60;13.88;;;28.00;63.50;;;;;;5017489;28;20038;-37
2021/07/21 09:50:45;;;;;;;20.27;14.40;;;28.00;63.30;;;;;;5017717;28;20025;-37
2021/07/21 09:53:12;;;;;;;18.88;13.05;;;28.00;63.30;;;;;;5017341;28;20092;-38
2021/07/21 09:55:41;;;;;;;18.52;13.75;;;27.90;63.50;;;;;;5017514;28;20040;-37
2021/07/21 09:58:18;;;;;;;16.88;12.77;;;27.90;63.60;;;;;;5017106;28;20372;-37
2021/07/21 10:00:46;;;;;;;17.33;12.90;;;27.80;63.30;;;;;;5016347;28;20045;-37
2021/07/21 10:03:20;;;;;;;20.60;12.38;;;27.70;63.40;;;;;;5016399;28;20318;-37
2021/07/21 10:06:06;;;;;;;16.65;11.82;;;27.70;63.80;;;;;;5015742;28;20096;-38
2021/07/21 10:08:37;;;;;;;18.17;12.18;;;27.70;64.40;;;;;;5015543;28;20046;-37
2021/07/21 10:11:29;;;;;;;19.30;13.25;;;27.70;64.30;;;;;;5015295;28;20453;-37
2021/07/21 10:14:01;;;;;;;17.20;11.27;;;27.70;64.90;;;;;;5014984;28;20034;-37
2021/07/21 10:16:31;;;;;;;16.17;12.00;;;27.60;64.40;;;;;;5015462;28;20136;-37
2021/07/21 10:19:05;;;;;;;18.02;12.20;;;27.60;63.90;;;;;;5015482;28;20036;-38
2021/07/21 10:21:31;;;;;;;16.73;13.50;;;27.60;63.90;;;;;;5014049;28;20033;-37
2021/07/21 10:23:56;;;;;;;20.15;12.13;;;27.60;64.40;;;;;;5015987;28;20326;-38
2021/07/21 10:26:24;;;;;;;19.17;12.75;;;27.60;64.50;;;;;;5016796;28;20030;-38
2021/07/21 10:28:51;;;;;;;14.68;11.65;;;27.60;64.60;;;;;;5017141;28;20034;-37
2021/07/21 10:31:16;;;;;;;16.15;12.13;;;27.60;64.50;;;;;;5016253;28;20105;-37
2021/07/21 10:33:42;;;;;;;14.60;11.48;;;27.70;64.80;;;;;;5016463;28;20212;-37
2021/07/21 10:36:09;;;;;;;14.27;11.45;;;27.70;64.30;;;;;;5016647;28;20104;-37
2021/07/21 10:38:36;;;;;;;16.55;11.13;;;27.70;64.40;;;;;;5017297;28;20058;-37
2021/07/21 10:41:03;;;;;;;17.63;12.57;;;27.70;64.30;;;;;;5016581;28;20034;-37
2021/07/21 10:43:29;;;;;;;16.08;12.23;;;27.80;64.00;;;;;;5016846;28;20022;-37
2021/07/21 10:45:55;;;;;;;16.70;12.15;;;27.80;63.90;;;;;;5017058;28;20032;-37
2021/07/21 10:48:45;;;;;;;15.55;11.63;;;27.80;64.10;;;;;;5016332;28;20029;-37
2021/07/21 10:54:41;;;;;;;15.73;11.15;;;27.80;63.80;;;;;;4993528;28;20046;-38
2021/07/21 11:00:17;;;;;;;18.15;10.70;;;27.70;63.50;;;;;;5016550;28;20411;-37
2021/07/21 11:02:44;;;;;;;18.73;11.70;;;27.70;63.40;;;;;;5016328;28;20267;-37
2021/07/21 11:05:31;;;;;;;19.30;10.73;;;27.60;63.70;;;;;;5016231;28;20036;-38
2021/07/21 11:07:58;;;;;;;16.15;10.13;;;27.60;63.40;;;;;;5016019;28;20077;-37
2021/07/21 11:10:30;;;;;;;14.38;10.40;;;27.60;63.50;;;;;;5016127;28;20033;-38
2021/07/21 11:12:55;;;;;;;15.30;10.32;;;27.60;63.60;;;;;;5016203;28;20125;-37
2021/07/21 11:15:41;;;;;;;14.48;10.00;;;27.60;64.10;;;;;;5016461;28;20264;-37
2021/07/21 11:18:22;;;;;;;17.58;10.93;;;27.60;64.20;;;;;;5015984;28;20033;-38
2021/07/21 11:21:15;;;;;;;15.57;10.75;;;27.60;64.00;;;;;;5016295;28;20345;-38
2021/07/21 11:23:47;;;;;;;14.13;10.13;;;27.60;64.10;;;;;;5014223;28;20346;-37
2021/07/21 11:26:32;;;;;;;12.75;10.05;;;27.60;64.00;;;;;;5015969;28;20034;-37
2021/07/21 11:29:18;;;;;;;14.93;10.20;;;27.70;64.30;;;;;;5015597;28;20034;-38
2021/07/21 11:31:57;;;;;;;15.73;10.60;;;27.70;64.40;;;;;;5015485;28;20053;-38
2021/07/21 11:34:37;;;;;;;13.95;10.10;;;27.70;64.50;;;;;;5009442;28;20061;-38
2021/07/21 11:37:06;;;;;;;12.13;10.30;;;27.70;64.40;;;;;;5015422;28;20034;-38
2021/07/21 11:40:05;;;;;;;12.73;10.30;;;27.80;64.40;;;;;;5015237;28;20069;-37
2021/07/21 11:45:04;;;;;;;11.38;9.57;;;27.80;64.40;;;;;;5015532;28;20037;-37
2021/07/21 11:47:37;;;;;;;20.23;10.80;;;27.90;63.80;;;;;;5015399;28;20049;-38
2021/07/21 11:50:11;;;;;;;17.00;10.70;;;27.90;63.70;;;;;;5015563;28;20046;-38
2021/07/21 11:52:38;;;;;;;16.00;10.60;;;28.00;63.60;;;;;;5014878;28;20425;-37
2021/07/21 11:55:05;;;;;;;11.85;9.13;;;28.00;63.60;;;;;;5015875;28;20022;-38
2021/07/21 11:57:30;;;;;;;13.13;9.75;;;28.10;63.30;;;;;;5015119;28;20034;-38
2021/07/21 11:59:59;;;;;;;14.05;8.68;;;28.10;63.00;;;;;;5015058;28;20033;-38
2021/07/21 12:02:26;;;;;;;12.18;8.95;;;28.10;63.10;;;;;;5015120;28;20356;-38
2021/07/21 12:04:55;;;;;;;12.68;8.95;;;28.00;63.20;;;;;;5015289;28;20026;-37
2021/07/21 12:07:23;;;;;;;16.98;9.20;;;28.00;62.70;;;;;;5014733;28;20022;-38
2021/07/21 12:09:53;;;;;;;13.98;9.77;;;28.00;62.40;;;;;;5015179;28;20152;-37
2021/07/21 12:12:24;;;;;;;11.88;9.40;;;28.00;62.50;;;;;;5014678;28;20318;-37
2021/07/21 12:14:52;;;;;;;12.20;9.18;;;28.00;62.60;;;;;;5015176;28;20019;-38
2021/07/21 12:17:19;;;;;;;10.63;8.27;;;28.00;62.70;;;;;;5015413;28;20061;-37
2021/07/21 12:19:59;;;;;;;11.98;9.07;;;27.90;62.30;;;;;;5014825;28;20018;-37
2021/07/21 12:22:28;;;;;;;11.95;8.40;;;27.90;62.60;;;;;;5015261;28;20100;-37
2021/07/21 12:24:56;;;;;;;9.93;8.45;;;27.90;62.30;;;;;;5015405;28;20022;-37
2021/07/21 12:27:32;;;;;;;10.93;8.07;;;27.90;62.70;;;;;;5015550;28;20053;-38
2021/07/21 12:30:19;;;;;;;13.32;8.10;;;27.90;62.60;;;;;;5015202;28;20026;-38
2021/07/21 12:32:46;;;;;;;10.05;7.80;;;27.80;62.40;;;;;;5014702;28;20374;-37
2021/07/21 12:35:13;;;;;;;17.65;7.75;;;27.80;62.60;;;;;;5015010;28;20064;-37
2021/07/21 12:37:42;;;;;;;9.38;6.90;;;27.70;62.80;;;;;;5014968;28;20037;-37
2021/07/21 12:40:10;;;;;;;9.80;7.75;;;27.70;62.60;;;;;;5015224;28;20049;-37
2021/07/21 12:42:36;;;;;;;9.70;7.78;;;27.70;62.40;;;;;;5014475;28;20030;-37
2021/07/21 12:45:22;;;;;;;10.88;8.10;;;27.70;62.80;;;;;;5015757;28;20033;-38
2021/07/21 12:47:57;;;;;;;11.15;7.85;;;27.60;63.20;;;;;;5015360;28;20402;-38
2021/07/21 12:50:27;;;;;;;9.70;7.47;;;27.50;63.10;;;;;;5015615;28;20025;-38
2021/07/21 12:52:54;;;;;;;;;;;27.50;64.00;;;;;;5015725;28;20121;-38